sensor_id;sensor_type;location;lat;lon;timestamp;P1;durP1;ratioP1;P2;durP2;ratioP2
43646;SDS011;56152;49.996;18.980;2023-07-22T00:02:45;11.82;;;8.48;;
43646;SDS011;56152;49.996;18.980;2023-07-22T00:07:47;15.00;;;9.82;;
43646;SDS011;56152;49.996;18.980;2023-07-22T00:13:07;14.60;;;9.48;;
43646;SDS011;56152;49.996;18.980;2023-07-22T00:18:14;13.00;;;8.77;;
43646;SDS011;56152;49.996;18.980;2023-07-22T00:23:17;10.55;;;8.57;;
43646;SDS011;56152;49.996;18.980;2023-07-22T00:34:27;12.10;;;8.23;;
43646;SDS011;56152;49.996;18.980;2023-07-22T00:39:34;11.82;;;7.68;;
43646;SDS011;56152;49.996;18.980;2023-07-22T00:44:51;29.20;;;7.88;;
43646;SDS011;56152;49.996;18.980;2023-07-22T00:49:56;19.55;;;6.70;;
43646;SDS011;56152;49.996;18.980;2023-07-22T00:54:58;8.88;;;5.75;;
43646;SDS011;56152;49.996;18.980;2023-07-22T01:00:21;14.77;;;6.40;;
43646;SDS011;56152;49.996;18.980;2023-07-22T01:05:25;8.05;;;4.50;;
43646;SDS011;56152;49.996;18.980;2023-07-22T01:10:34;5.85;;;5.07;;
43646;SDS011;56152;49.996;18.980;2023-07-22T01:15:44;9.30;;;5.28;;
43646;SDS011;56152;49.996;18.980;2023-07-22T01:21:05;7.70;;;5.97;;
43646;SDS011;56152;49.996;18.980;2023-07-22T01:26:12;9.25;;;5.55;;
43646;SDS011;56152;49.996;18.980;2023-07-22T01:31:17;7.80;;;5.65;;
43646;SDS011;56152;49.996;18.980;2023-07-22T01:36:22;9.35;;;6.35;;
43646;SDS011;56152;49.996;18.980;2023-07-22T01:41:43;13.35;;;6.78;;
43646;SDS011;56152;49.996;18.980;2023-07-22T01:46:45;12.40;;;6.18;;
43646;SDS011;56152;49.996;18.980;2023-07-22T01:51:57;13.02;;;5.07;;
43646;SDS011;56152;49.996;18.980;2023-07-22T01:57:02;8.38;;;4.85;;
43646;SDS011;56152;49.996;18.980;2023-07-22T02:02:10;7.40;;;4.45;;
43646;SDS011;56152;49.996;18.980;2023-07-22T02:12:58;11.30;;;6.10;;
43646;SDS011;56152;49.996;18.980;2023-07-22T02:18:03;9.82;;;5.47;;
43646;SDS011;56152;49.996;18.980;2023-07-22T02:23:06;13.40;;;6.25;;
43646;SDS011;56152;49.996;18.980;2023-07-22T02:34:00;9.02;;;4.80;;
43646;SDS011;56152;49.996;18.980;2023-07-22T02:49:34;15.02;;;5.65;;
43646;SDS011;56152;49.996;18.980;2023-07-22T02:54:38;7.05;;;5.00;;
43646;SDS011;56152;49.996;18.980;2023-07-22T02:59:42;11.75;;;5.95;;
43646;SDS011;56152;49.996;18.980;2023-07-22T03:04:46;11.20;;;5.13;;
43646;SDS011;56152;49.996;18.980;2023-07-22T03:09:48;9.30;;;5.75;;
43646;SDS011;56152;49.996;18.980;2023-07-22T03:20:17;12.95;;;7.60;;
43646;SDS011;56152;49.996;18.980;2023-07-22T03:25:22;17.00;;;7.93;;
43646;SDS011;56152;49.996;18.980;2023-07-22T03:30:24;16.98;;;8.63;;
43646;SDS011;56152;49.996;18.980;2023-07-22T03:35:35;14.30;;;8.38;;
43646;SDS011;56152;49.996;18.980;2023-07-22T03:40:37;14.30;;;8.82;;
43646;SDS011;56152;49.996;18.980;2023-07-22T03:51:09;18.88;;;8.40;;
43646;SDS011;56152;49.996;18.980;2023-07-22T03:56:11;18.77;;;8.85;;
43646;SDS011;56152;49.996;18.980;2023-07-22T04:01:13;19.80;;;9.05;;
43646;SDS011;56152;49.996;18.980;2023-07-22T04:06:18;17.45;;;8.05;;
43646;SDS011;56152;49.996;18.980;2023-07-22T04:11:22;14.63;;;8.50;;
43646;SDS011;56152;49.996;18.980;2023-07-22T04:16:27;13.73;;;7.90;;
43646;SDS011;56152;49.996;18.980;2023-07-22T04:21:35;18.05;;;8.23;;
43646;SDS011;56152;49.996;18.980;2023-07-22T04:26:37;22.65;;;9.00;;
43646;SDS011;56152;49.996;18.980;2023-07-22T04:31:42;18.73;;;7.40;;
43646;SDS011;56152;49.996;18.980;2023-07-22T04:36:57;16.83;;;7.80;;
43646;SDS011;56152;49.996;18.980;2023-07-22T04:42:00;15.65;;;8.38;;
43646;SDS011;56152;49.996;18.980;2023-07-22T04:47:06;12.57;;;7.82;;
43646;SDS011;56152;49.996;18.980;2023-07-22T04:52:10;13.25;;;7.63;;
43646;SDS011;56152;49.996;18.980;2023-07-22T04:57:17;15.15;;;6.95;;
43646;SDS011;56152;49.996;18.980;2023-07-22T05:02:20;13.15;;;6.45;;
43646;SDS011;56152;49.996;18.980;2023-07-22T05:07:32;13.90;;;6.72;;
43646;SDS011;56152;49.996;18.980;2023-07-22T05:18:01;22.35;;;6.75;;
43646;SDS011;56152;49.996;18.980;2023-07-22T05:23:12;14.10;;;6.32;;
43646;SDS011;56152;49.996;18.980;2023-07-22T05:28:14;11.07;;;6.47;;
43646;SDS011;56152;49.996;18.980;2023-07-22T05:33:23;9.13;;;5.85;;
43646;SDS011;56152;49.996;18.980;2023-07-22T05:38:27;13.82;;;5.60;;
43646;SDS011;56152;49.996;18.980;2023-07-22T05:43:42;13.20;;;5.85;;
43646;SDS011;56152;49.996;18.980;2023-07-22T05:48:46;11.10;;;5.95;;
43646;SDS011;56152;49.996;18.980;2023-07-22T05:53:50;10.80;;;5.03;;
43646;SDS011;56152;49.996;18.980;2023-07-22T05:58:53;9.45;;;5.05;;
43646;SDS011;56152;49.996;18.980;2023-07-22T06:03:58;12.77;;;5.55;;
43646;SDS011;56152;49.996;18.980;2023-07-22T06:20:18;10.35;;;5.57;;
43646;SDS011;56152;49.996;18.980;2023-07-22T06:25:30;8.82;;;5.57;;
43646;SDS011;56152;49.996;18.980;2023-07-22T06:30:35;8.18;;;5.07;;
43646;SDS011;56152;49.996;18.980;2023-07-22T06:41:01;8.25;;;5.05;;
43646;SDS011;56152;49.996;18.980;2023-07-22T06:46:29;7.10;;;5.10;;
43646;SDS011;56152;49.996;18.980;2023-07-22T06:51:30;12.13;;;5.72;;
43646;SDS011;56152;49.996;18.980;2023-07-22T07:01:59;9.32;;;4.85;;
43646;SDS011;56152;49.996;18.980;2023-07-22T07:07:05;8.07;;;4.82;;
43646;SDS011;56152;49.996;18.980;2023-07-22T07:12:08;14.70;;;5.53;;
43646;SDS011;56152;49.996;18.980;2023-07-22T07:17:20;7.90;;;5.40;;
43646;SDS011;56152;49.996;18.980;2023-07-22T07:22:23;5.20;;;4.18;;
43646;SDS011;56152;49.996;18.980;2023-07-22T07:27:25;7.20;;;4.28;;
43646;SDS011;56152;49.996;18.980;2023-07-22T07:32:30;5.88;;;4.32;;
43646;SDS011;56152;49.996;18.980;2023-07-22T07:37:32;6.90;;;3.95;;
43646;SDS011;56152;49.996;18.980;2023-07-22T07:42:34;7.53;;;4.22;;
43646;SDS011;56152;49.996;18.980;2023-07-22T07:53:04;6.13;;;3.47;;
43646;SDS011;56152;49.996;18.980;2023-07-22T07:58:17;5.60;;;3.92;;
43646;SDS011;56152;49.996;18.980;2023-07-22T08:03:22;5.07;;;3.20;;
43646;SDS011;56152;49.996;18.980;2023-07-22T08:14:01;3.72;;;2.80;;
43646;SDS011;56152;49.996;18.980;2023-07-22T08:24:25;6.10;;;3.88;;
43646;SDS011;56152;49.996;18.980;2023-07-22T08:29:36;7.70;;;4.03;;
43646;SDS011;56152;49.996;18.980;2023-07-22T08:34:39;4.00;;;2.78;;
43646;SDS011;56152;49.996;18.980;2023-07-22T08:39:44;4.82;;;3.20;;
43646;SDS011;56152;49.996;18.980;2023-07-22T08:44:47;4.35;;;2.60;;
43646;SDS011;56152;49.996;18.980;2023-07-22T08:49:57;3.92;;;3.20;;
43646;SDS011;56152;49.996;18.980;2023-07-22T08:55:11;5.43;;;3.10;;
43646;SDS011;56152;49.996;18.980;2023-07-22T09:05:42;6.90;;;3.00;;
43646;SDS011;56152;49.996;18.980;2023-07-22T09:10:48;5.85;;;4.07;;
43646;SDS011;56152;49.996;18.980;2023-07-22T09:15:58;10.18;;;5.05;;
43646;SDS011;56152;49.996;18.980;2023-07-22T09:21:06;5.72;;;2.78;;
43646;SDS011;56152;49.996;18.980;2023-07-22T09:26:09;4.70;;;2.60;;
43646;SDS011;56152;49.996;18.980;2023-07-22T09:31:24;3.88;;;2.70;;
43646;SDS011;56152;49.996;18.980;2023-07-22T09:36:31;5.20;;;2.53;;
43646;SDS011;56152;49.996;18.980;2023-07-22T09:41:33;5.93;;;2.65;;
43646;SDS011;56152;49.996;18.980;2023-07-22T09:47:09;3.08;;;2.42;;
43646;SDS011;56152;49.996;18.980;2023-07-22T09:57:43;5.13;;;2.55;;
43646;SDS011;56152;49.996;18.980;2023-07-22T10:03:08;4.57;;;2.47;;
43646;SDS011;56152;49.996;18.980;2023-07-22T10:08:15;5.18;;;2.85;;
43646;SDS011;56152;49.996;18.980;2023-07-22T10:13:33;7.07;;;2.30;;
43646;SDS011;56152;49.996;18.980;2023-07-22T10:18:36;4.32;;;2.17;;
43646;SDS011;56152;49.996;18.980;2023-07-22T10:23:45;7.70;;;2.30;;
43646;SDS011;56152;49.996;18.980;2023-07-22T10:28:49;6.72;;;2.22;;
43646;SDS011;56152;49.996;18.980;2023-07-22T10:34:00;3.65;;;2.13;;
43646;SDS011;56152;49.996;18.980;2023-07-22T10:39:04;8.30;;;2.72;;
43646;SDS011;56152;49.996;18.980;2023-07-22T10:44:09;2.90;;;2.20;;
43646;SDS011;56152;49.996;18.980;2023-07-22T10:49:13;4.55;;;2.33;;
43646;SDS011;56152;49.996;18.980;2023-07-22T10:54:33;3.20;;;2.40;;
43646;SDS011;56152;49.996;18.980;2023-07-22T10:59:41;2.55;;;2.20;;
43646;SDS011;56152;49.996;18.980;2023-07-22T11:04:50;4.20;;;2.75;;
43646;SDS011;56152;49.996;18.980;2023-07-22T11:09:55;6.38;;;2.75;;
43646;SDS011;56152;49.996;18.980;2023-07-22T11:15:02;4.70;;;2.10;;
43646;SDS011;56152;49.996;18.980;2023-07-22T11:20:06;5.60;;;2.20;;
43646;SDS011;56152;49.996;18.980;2023-07-22T11:25:18;5.10;;;2.20;;
43646;SDS011;56152;49.996;18.980;2023-07-22T11:30:23;3.30;;;2.30;;
43646;SDS011;56152;49.996;18.980;2023-07-22T11:35:27;4.78;;;2.33;;
43646;SDS011;56152;49.996;18.980;2023-07-22T11:40:38;5.10;;;2.17;;
43646;SDS011;56152;49.996;18.980;2023-07-22T11:45:43;3.42;;;2.60;;
43646;SDS011;56152;49.996;18.980;2023-07-22T11:50:45;6.13;;;2.90;;
43646;SDS011;56152;49.996;18.980;2023-07-22T11:55:55;5.25;;;2.78;;
43646;SDS011;56152;49.996;18.980;2023-07-22T12:01:01;3.75;;;2.60;;
43646;SDS011;56152;49.996;18.980;2023-07-22T12:06:05;6.50;;;3.22;;
43646;SDS011;56152;49.996;18.980;2023-07-22T12:16:38;5.57;;;2.97;;
43646;SDS011;56152;49.996;18.980;2023-07-22T12:21:45;5.78;;;2.97;;
43646;SDS011;56152;49.996;18.980;2023-07-22T12:26:50;5.28;;;3.00;;
43646;SDS011;56152;49.996;18.980;2023-07-22T12:31:55;4.95;;;2.88;;
43646;SDS011;56152;49.996;18.980;2023-07-22T12:37:02;5.55;;;3.75;;
43646;SDS011;56152;49.996;18.980;2023-07-22T12:42:07;5.03;;;2.67;;
43646;SDS011;56152;49.996;18.980;2023-07-22T12:47:11;6.15;;;2.80;;
43646;SDS011;56152;49.996;18.980;2023-07-22T12:52:16;3.25;;;2.30;;
43646;SDS011;56152;49.996;18.980;2023-07-22T12:57:23;5.07;;;2.40;;
43646;SDS011;56152;49.996;18.980;2023-07-22T13:02:25;4.15;;;2.17;;
43646;SDS011;56152;49.996;18.980;2023-07-22T13:07:28;3.50;;;2.30;;
43646;SDS011;56152;49.996;18.980;2023-07-22T13:12:31;6.20;;;4.30;;
43646;SDS011;56152;49.996;18.980;2023-07-22T13:17:35;5.20;;;3.60;;
43646;SDS011;56152;49.996;18.980;2023-07-22T13:22:40;3.63;;;2.00;;
43646;SDS011;56152;49.996;18.980;2023-07-22T13:27:43;6.55;;;2.90;;
43646;SDS011;56152;49.996;18.980;2023-07-22T13:32:49;4.32;;;3.83;;
43646;SDS011;56152;49.996;18.980;2023-07-22T13:38:08;5.18;;;2.53;;
43646;SDS011;56152;49.996;18.980;2023-07-22T13:43:12;4.80;;;2.33;;
43646;SDS011;56152;49.996;18.980;2023-07-22T13:48:25;5.55;;;2.35;;
43646;SDS011;56152;49.996;18.980;2023-07-22T13:53:28;4.82;;;2.88;;
43646;SDS011;56152;49.996;18.980;2023-07-22T13:58:33;3.05;;;2.17;;
43646;SDS011;56152;49.996;18.980;2023-07-22T14:09:09;3.13;;;2.63;;
43646;SDS011;56152;49.996;18.980;2023-07-22T14:19:19;7.13;;;3.70;;
43646;SDS011;56152;49.996;18.980;2023-07-22T14:24:33;4.10;;;3.20;;
43646;SDS011;56152;49.996;18.980;2023-07-22T14:29:38;4.85;;;3.35;;
43646;SDS011;56152;49.996;18.980;2023-07-22T14:40:07;5.53;;;3.67;;
43646;SDS011;56152;49.996;18.980;2023-07-22T14:50:34;6.15;;;3.63;;
43646;SDS011;56152;49.996;18.980;2023-07-22T14:55:43;4.18;;;2.90;;
43646;SDS011;56152;49.996;18.980;2023-07-22T15:00:55;5.78;;;3.70;;
43646;SDS011;56152;49.996;18.980;2023-07-22T15:05:58;7.43;;;5.22;;
43646;SDS011;56152;49.996;18.980;2023-07-22T15:11:00;8.77;;;4.47;;
43646;SDS011;56152;49.996;18.980;2023-07-22T15:16:07;8.30;;;4.20;;
43646;SDS011;56152;49.996;18.980;2023-07-22T15:21:08;3.92;;;2.65;;
43646;SDS011;56152;49.996;18.980;2023-07-22T15:31:40;7.65;;;2.80;;
43646;SDS011;56152;49.996;18.980;2023-07-22T15:37:01;5.93;;;2.90;;
43646;SDS011;56152;49.996;18.980;2023-07-22T15:42:04;3.03;;;2.50;;
43646;SDS011;56152;49.996;18.980;2023-07-22T15:47:08;6.13;;;3.17;;
43646;SDS011;56152;49.996;18.980;2023-07-22T15:52:22;3.30;;;2.83;;
43646;SDS011;56152;49.996;18.980;2023-07-22T15:57:24;4.10;;;2.88;;
43646;SDS011;56152;49.996;18.980;2023-07-22T16:02:48;3.83;;;2.55;;
43646;SDS011;56152;49.996;18.980;2023-07-22T16:08:01;5.20;;;2.53;;
43646;SDS011;56152;49.996;18.980;2023-07-22T16:13:03;5.68;;;2.70;;
43646;SDS011;56152;49.996;18.980;2023-07-22T16:23:18;4.20;;;2.83;;
43646;SDS011;56152;49.996;18.980;2023-07-22T16:28:21;4.68;;;2.92;;
43646;SDS011;56152;49.996;18.980;2023-07-22T16:33:37;4.20;;;3.15;;
43646;SDS011;56152;49.996;18.980;2023-07-22T16:38:39;6.90;;;3.97;;
43646;SDS011;56152;49.996;18.980;2023-07-22T16:48:49;5.40;;;3.60;;
43646;SDS011;56152;49.996;18.980;2023-07-22T16:53:52;4.82;;;3.60;;
43646;SDS011;56152;49.996;18.980;2023-07-22T16:58:54;5.82;;;3.83;;
43646;SDS011;56152;49.996;18.980;2023-07-22T17:04:16;7.55;;;3.45;;
43646;SDS011;56152;49.996;18.980;2023-07-22T17:09:29;5.60;;;3.55;;
43646;SDS011;56152;49.996;18.980;2023-07-22T17:14:52;9.25;;;4.50;;
43646;SDS011;56152;49.996;18.980;2023-07-22T17:19:55;7.22;;;5.57;;
43646;SDS011;56152;49.996;18.980;2023-07-22T17:24:57;9.30;;;5.28;;
43646;SDS011;56152;49.996;18.980;2023-07-22T17:30:03;10.13;;;5.63;;
43646;SDS011;56152;49.996;18.980;2023-07-22T17:40:39;5.85;;;3.80;;
43646;SDS011;56152;49.996;18.980;2023-07-22T17:45:42;8.90;;;5.82;;
43646;SDS011;56152;49.996;18.980;2023-07-22T17:51:06;6.47;;;4.72;;
43646;SDS011;56152;49.996;18.980;2023-07-22T17:56:09;6.32;;;4.43;;
43646;SDS011;56152;49.996;18.980;2023-07-22T18:01:11;4.63;;;3.85;;
43646;SDS011;56152;49.996;18.980;2023-07-22T18:11:52;7.72;;;4.72;;
43646;SDS011;56152;49.996;18.980;2023-07-22T18:16:54;10.15;;;4.78;;
43646;SDS011;56152;49.996;18.980;2023-07-22T18:27:25;9.27;;;3.65;;
43646;SDS011;56152;49.996;18.980;2023-07-22T18:32:28;8.20;;;3.70;;
43646;SDS011;56152;49.996;18.980;2023-07-22T18:37:43;14.32;;;4.57;;
43646;SDS011;56152;49.996;18.980;2023-07-22T18:42:48;14.45;;;5.15;;
43646;SDS011;56152;49.996;18.980;2023-07-22T18:53:16;6.35;;;4.22;;
43646;SDS011;56152;49.996;18.980;2023-07-22T19:04:06;9.15;;;5.22;;
43646;SDS011;56152;49.996;18.980;2023-07-22T19:09:12;11.15;;;5.40;;
43646;SDS011;56152;49.996;18.980;2023-07-22T19:14:15;8.80;;;5.30;;
43646;SDS011;56152;49.996;18.980;2023-07-22T19:19:17;8.27;;;4.95;;
43646;SDS011;56152;49.996;18.980;2023-07-22T19:24:24;11.23;;;6.78;;
43646;SDS011;56152;49.996;18.980;2023-07-22T19:29:33;12.38;;;6.28;;
43646;SDS011;56152;49.996;18.980;2023-07-22T19:34:38;7.22;;;5.00;;
43646;SDS011;56152;49.996;18.980;2023-07-22T19:39:42;7.82;;;5.13;;
43646;SDS011;56152;49.996;18.980;2023-07-22T19:44:44;8.35;;;5.53;;
43646;SDS011;56152;49.996;18.980;2023-07-22T19:49:47;8.50;;;5.53;;
43646;SDS011;56152;49.996;18.980;2023-07-22T20:00:30;15.90;;;8.60;;
43646;SDS011;56152;49.996;18.980;2023-07-22T20:05:39;10.77;;;7.68;;
43646;SDS011;56152;49.996;18.980;2023-07-22T20:10:59;14.85;;;7.57;;
43646;SDS011;56152;49.996;18.980;2023-07-22T20:16:01;14.80;;;7.75;;
43646;SDS011;56152;49.996;18.980;2023-07-22T20:21:13;15.20;;;7.93;;
43646;SDS011;56152;49.996;18.980;2023-07-22T20:26:17;18.80;;;8.93;;
43646;SDS011;56152;49.996;18.980;2023-07-22T20:36:57;31.65;;;12.25;;
43646;SDS011;56152;49.996;18.980;2023-07-22T20:47:56;14.32;;;8.82;;
43646;SDS011;56152;49.996;18.980;2023-07-22T20:53:14;18.00;;;9.82;;
43646;SDS011;56152;49.996;18.980;2023-07-22T20:58:17;14.40;;;8.23;;
43646;SDS011;56152;49.996;18.980;2023-07-22T21:03:30;16.13;;;9.30;;
43646;SDS011;56152;49.996;18.980;2023-07-22T21:14:04;17.75;;;11.02;;
43646;SDS011;56152;49.996;18.980;2023-07-22T21:19:22;15.75;;;9.90;;
43646;SDS011;56152;49.996;18.980;2023-07-22T21:24:24;19.00;;;10.55;;
43646;SDS011;56152;49.996;18.980;2023-07-22T21:29:47;23.85;;;9.00;;
43646;SDS011;56152;49.996;18.980;2023-07-22T21:34:52;13.00;;;8.93;;
43646;SDS011;56152;49.996;18.980;2023-07-22T21:39:55;18.13;;;9.95;;
43646;SDS011;56152;49.996;18.980;2023-07-22T21:50:08;28.75;;;13.90;;
43646;SDS011;56152;49.996;18.980;2023-07-22T21:55:11;23.25;;;12.93;;
43646;SDS011;56152;49.996;18.980;2023-07-22T22:05:28;21.35;;;12.70;;
43646;SDS011;56152;49.996;18.980;2023-07-22T22:10:34;19.92;;;15.13;;
43646;SDS011;56152;49.996;18.980;2023-07-22T22:15:37;19.50;;;12.35;;
43646;SDS011;56152;49.996;18.980;2023-07-22T22:20:41;19.50;;;11.35;;
43646;SDS011;56152;49.996;18.980;2023-07-22T22:25:43;19.00;;;12.15;;
43646;SDS011;56152;49.996;18.980;2023-07-22T22:30:46;22.42;;;12.38;;
43646;SDS011;56152;49.996;18.980;2023-07-22T22:41:47;22.80;;;14.18;;
43646;SDS011;56152;49.996;18.980;2023-07-22T22:46:50;24.17;;;14.95;;
43646;SDS011;56152;49.996;18.980;2023-07-22T22:51:56;20.60;;;14.60;;
43646;SDS011;56152;49.996;18.980;2023-07-22T22:57:00;18.80;;;13.48;;
43646;SDS011;56152;49.996;18.980;2023-07-22T23:02:17;20.23;;;14.40;;
43646;SDS011;56152;49.996;18.980;2023-07-22T23:07:20;22.77;;;14.70;;
43646;SDS011;56152;49.996;18.980;2023-07-22T23:12:24;26.55;;;16.73;;
43646;SDS011;56152;49.996;18.980;2023-07-22T23:17:44;26.98;;;14.88;;
43646;SDS011;56152;49.996;18.980;2023-07-22T23:22:47;26.23;;;15.05;;
43646;SDS011;56152;49.996;18.980;2023-07-22T23:27:50;21.45;;;13.45;;
43646;SDS011;56152;49.996;18.980;2023-07-22T23:32:55;33.72;;;15.98;;
43646;SDS011;56152;49.996;18.980;2023-07-22T23:38:03;24.15;;;13.68;;
43646;SDS011;56152;49.996;18.980;2023-07-22T23:43:10;25.75;;;13.73;;
43646;SDS011;56152;49.996;18.980;2023-07-22T23:48:13;21.55;;;14.13;;
43646;SDS011;56152;49.996;18.980;2023-07-22T23:53:30;22.30;;;13.65;;
43646;SDS011;56152;49.996;18.980;2023-07-22T23:58:37;25.10;;;16.58;;
